createdAt,value
2019-05-30T00:00:46.851Z,1.90
2019-05-30T00:03:18.373Z,2.30
2019-05-30T00:05:50.067Z,2.00
2019-05-30T00:08:22.306Z,2.35
2019-05-30T00:10:54.374Z,1.70
2019-05-30T00:13:25.597Z,2.10
2019-05-30T00:15:57.264Z,1.90
2019-05-30T00:18:28.862Z,1.87
2019-05-30T00:21:00.828Z,2.08
2019-05-30T00:23:32.732Z,2.30
2019-05-30T00:28:35.311Z,2.22
2019-05-30T00:31:06.881Z,2.12
2019-05-30T00:33:38.774Z,1.87
2019-05-30T00:36:10.691Z,1.80
2019-05-30T00:41:13.067Z,1.80
2019-05-30T00:43:44.774Z,3.25
2019-05-30T00:48:47.763Z,1.95
2019-05-30T00:53:51.306Z,2.45
2019-05-30T00:56:22.841Z,2.02
2019-05-30T00:58:54.591Z,1.90
2019-05-30T01:01:26.173Z,2.12
2019-05-30T01:03:58.628Z,2.20
2019-05-30T01:06:30.352Z,2.20
2019-05-30T01:09:03.167Z,1.87
2019-05-30T01:11:35.298Z,1.90
2019-05-30T01:14:07.582Z,2.37
2019-05-30T01:16:42.571Z,2.40
2019-05-30T01:19:13.304Z,2.83
2019-05-30T01:21:44.886Z,2.30
2019-05-30T01:24:16.733Z,2.08
2019-05-30T01:29:19.054Z,2.25
2019-05-30T01:31:50.744Z,2.10
2019-05-30T01:36:53.041Z,2.75
2019-05-30T01:39:24.793Z,2.20
2019-05-30T01:41:57.646Z,1.95
2019-05-30T01:44:29.407Z,2.00
2019-05-30T01:47:01.989Z,1.98
2019-05-30T01:49:33.749Z,1.85
2019-05-30T01:54:36.300Z,2.35
2019-05-30T01:57:08.787Z,2.08
2019-05-30T01:59:41.030Z,1.95
2019-05-30T02:02:12.778Z,2.10
2019-05-30T02:07:15.386Z,2.00
2019-05-30T02:09:48.693Z,1.98
2019-05-30T02:14:51.307Z,2.00
2019-05-30T02:17:22.813Z,1.80
2019-05-30T02:19:54.394Z,2.35
2019-05-30T02:22:25.778Z,1.95
2019-05-30T02:27:28.289Z,2.20
2019-05-30T02:30:00.158Z,2.00
2019-05-30T02:32:32.286Z,2.00
2019-05-30T02:35:05.127Z,2.00
2019-05-30T02:37:37.362Z,2.00
2019-05-30T02:40:12.410Z,1.90
2019-05-30T02:42:42.787Z,1.85
2019-05-30T02:47:46.294Z,1.80
2019-05-30T02:50:17.808Z,1.90
2019-05-30T02:52:50.019Z,2.10
2019-05-30T02:55:21.356Z,2.60
2019-05-30T02:57:53.301Z,2.42
2019-05-30T03:00:36.772Z,2.20
2019-05-30T03:05:41.727Z,2.20
2019-05-30T03:10:45.745Z,1.92
2019-05-30T03:15:48.314Z,2.37
2019-05-30T03:18:19.861Z,1.92
2019-05-30T03:20:51.711Z,1.80
2019-05-30T03:25:54.309Z,1.90
2019-05-30T03:28:25.829Z,1.80
2019-05-30T03:30:58.297Z,1.92
2019-05-30T03:33:39.286Z,2.20
2019-05-30T03:36:09.198Z,2.40
2019-05-30T03:38:37.299Z,1.87
2019-05-30T03:41:11.306Z,1.90
2019-05-30T03:43:42.610Z,1.80
2019-05-30T03:46:22.747Z,1.57
2019-05-30T03:51:26.732Z,1.85
2019-05-30T03:56:39.382Z,1.80
2019-05-30T03:59:34.311Z,1.98
2019-05-30T04:02:22.297Z,1.70
2019-05-30T04:05:07.516Z,1.82
2019-05-30T04:07:47.898Z,3.60
2019-05-30T04:10:19.912Z,1.92
2019-05-30T04:13:34.752Z,2.10
2019-05-30T04:18:39.300Z,1.80
2019-05-30T04:21:13.221Z,1.70
2019-05-30T04:23:44.409Z,2.02
2019-05-30T04:26:16.491Z,1.82
2019-05-30T04:28:49.583Z,1.60
2019-05-30T04:31:21.374Z,1.67
2019-05-30T04:33:52.801Z,1.77
2019-05-30T04:36:24.517Z,1.87
2019-05-30T04:38:56.120Z,2.20
2019-05-30T04:41:27.763Z,2.00
2019-05-30T04:46:30.559Z,1.65
2019-05-30T04:49:02.370Z,2.35
2019-05-30T04:51:34.028Z,1.98
2019-05-30T04:54:05.737Z,2.33
2019-05-30T04:59:08.357Z,1.80
2019-05-30T05:01:40.293Z,1.70
2019-05-30T05:04:13.498Z,1.60
2019-05-30T05:06:45.420Z,1.70
2019-05-30T05:09:18.201Z,1.52
2019-05-30T05:11:50.067Z,1.72
2019-05-30T05:14:22.689Z,1.70
2019-05-30T05:16:54.793Z,1.90
2019-05-30T05:19:26.755Z,1.70
2019-05-30T05:21:58.609Z,2.20
2019-05-30T05:24:30.732Z,2.58
2019-05-30T05:27:02.774Z,1.70
2019-05-30T05:32:05.561Z,1.60
2019-05-30T05:34:37.302Z,1.70
2019-05-30T05:37:08.866Z,1.47
2019-05-30T05:39:40.740Z,1.72
2019-05-30T05:42:12.389Z,1.60
2019-05-30T05:44:44.306Z,1.60
2019-05-30T05:47:16.397Z,1.60
2019-05-30T05:49:48.307Z,1.92
2019-05-30T05:52:20.710Z,1.87
2019-05-30T05:54:52.858Z,1.87
2019-05-30T05:57:24.996Z,1.70
2019-05-30T05:59:56.861Z,1.70
2019-05-30T06:02:28.774Z,1.80
2019-05-30T06:07:31.307Z,1.65
2019-05-30T06:10:03.300Z,1.70
2019-05-30T06:12:34.805Z,1.57
2019-05-30T06:15:06.770Z,1.60
2019-05-30T06:17:38.599Z,1.57
2019-05-30T06:20:10.788Z,1.80
2019-05-30T06:22:42.398Z,1.70
2019-05-30T06:25:14.303Z,1.80
2019-05-30T06:27:45.821Z,1.60
2019-05-30T06:30:18.209Z,1.42
2019-05-30T06:32:50.070Z,1.55
2019-05-30T06:35:22.918Z,1.70
2019-05-30T06:37:55.318Z,1.60
2019-05-30T06:40:30.333Z,1.60
2019-05-30T06:43:00.410Z,1.75
2019-05-30T06:45:32.052Z,1.60
2019-05-30T06:48:03.840Z,1.32
2019-05-30T06:50:35.785Z,1.60
2019-05-30T06:55:38.315Z,1.60
2019-05-30T06:58:10.269Z,1.70
2019-05-30T07:00:41.873Z,2.83
2019-05-30T07:03:13.873Z,2.15
2019-05-30T07:05:46.231Z,1.40
2019-05-30T07:08:18.302Z,1.40
2019-05-30T07:10:50.302Z,2.55
2019-05-30T07:13:23.258Z,1.50
2019-05-30T07:15:55.307Z,1.85
2019-05-30T07:18:27.558Z,2.35
2019-05-30T07:21:00.422Z,1.87
2019-05-30T07:23:32.090Z,1.60
2019-05-30T07:26:03.880Z,1.55
2019-05-30T07:28:35.772Z,2.08
2019-05-30T07:33:38.261Z,2.12
2019-05-30T07:36:09.853Z,1.98
2019-05-30T07:38:41.618Z,2.27
2019-05-30T07:41:13.372Z,1.40
2019-05-30T07:43:45.062Z,1.90
2019-05-30T07:46:17.275Z,1.50
2019-05-30T07:48:48.856Z,2.08
2019-05-30T07:51:20.385Z,1.40
2019-05-30T07:53:52.019Z,1.87
2019-05-30T07:56:23.800Z,1.77
2019-05-30T07:58:55.875Z,3.50
2019-05-30T08:01:28.317Z,1.90
2019-05-30T08:04:00.309Z,1.47
2019-05-30T08:06:32.299Z,2.30
2019-05-30T08:09:05.033Z,2.30
2019-05-30T08:11:36.742Z,3.83
2019-05-30T08:17:12.001Z,4.97
2019-05-30T08:19:45.310Z,2.70
2019-05-30T08:22:17.716Z,2.65
2019-05-30T08:29:51.358Z,2.70
2019-05-30T08:32:23.104Z,3.55
2019-05-30T08:34:55.820Z,4.58
2019-05-30T08:37:28.865Z,5.10
2019-05-30T08:40:00.772Z,3.00
2019-05-30T08:42:33.269Z,3.80
2019-05-30T08:45:05.307Z,7.65
2019-05-30T08:47:38.039Z,2.92
2019-05-30T08:50:10.314Z,3.80
2019-05-30T08:52:42.623Z,4.87
2019-05-30T08:55:16.329Z,3.17
2019-05-30T08:57:47.930Z,3.00
2019-05-30T09:00:19.831Z,2.65
2019-05-30T09:02:51.729Z,2.67
2019-05-30T09:07:54.750Z,3.37
2019-05-30T09:12:57.266Z,2.98
2019-05-30T09:15:28.835Z,6.03
2019-05-30T09:18:00.666Z,6.33
2019-05-30T09:20:32.382Z,7.85
2019-05-30T09:23:04.297Z,3.55
2019-05-30T09:25:35.829Z,4.37
2019-05-30T09:28:07.527Z,34.95
2019-05-30T09:30:39.918Z,6.45
2019-05-30T09:33:13.433Z,4.90
2019-05-30T09:35:45.425Z,7.37
2019-05-30T09:38:17.306Z,7.47
2019-05-30T09:40:49.606Z,6.95
2019-05-30T09:43:21.616Z,2.60
2019-05-30T09:45:53.705Z,5.72
2019-05-30T09:50:56.305Z,6.20
2019-05-30T09:53:28.301Z,2.22
2019-05-30T09:56:00.010Z,1.65
2019-05-30T09:58:31.758Z,2.45
2019-05-30T10:03:33.741Z,2.40
2019-05-30T10:08:36.686Z,1.52
2019-05-30T10:11:08.781Z,3.50
2019-05-30T10:16:11.746Z,1.20
2019-05-30T10:21:14.377Z,2.27
2019-05-30T10:23:47.541Z,3.00
2019-05-30T10:26:20.298Z,2.33
2019-05-30T10:28:51.903Z,1.42
2019-05-30T10:31:23.385Z,3.22
2019-05-30T10:33:55.306Z,3.05
2019-05-30T10:36:27.666Z,1.30
2019-05-30T10:38:59.746Z,1.85
2019-05-30T10:44:02.504Z,2.25
2019-05-30T10:46:34.302Z,1.72
2019-05-30T10:49:06.319Z,1.55
2019-05-30T10:51:38.335Z,2.35
2019-05-30T10:54:10.062Z,2.22
2019-05-30T10:56:41.791Z,2.75
2019-05-30T10:59:13.610Z,1.98
2019-05-30T11:01:46.620Z,2.83
2019-05-30T11:04:19.226Z,1.72
2019-05-30T11:07:34.981Z,1.52
2019-05-30T11:10:14.311Z,3.02
2019-05-30T11:12:46.634Z,2.20
2019-05-30T11:15:19.233Z,1.65
2019-05-30T11:17:52.739Z,2.02
2019-05-30T11:20:24.639Z,3.95
2019-05-30T11:22:56.498Z,2.10
2019-05-30T11:25:28.333Z,2.35
2019-05-30T11:28:00.061Z,4.20
2019-05-30T11:30:31.778Z,2.27
2019-05-30T11:38:06.122Z,3.22
2019-05-30T11:40:37.746Z,3.60
2019-05-30T11:45:43.136Z,1.37
2019-05-30T11:48:17.337Z,4.28
2019-05-30T11:50:50.777Z,2.67
2019-05-30T11:53:23.648Z,2.80
2019-05-30T11:55:56.223Z,3.67
2019-05-30T11:58:28.389Z,2.47
2019-05-30T12:01:00.646Z,1.77
2019-05-30T12:06:03.446Z,1.75
2019-05-30T12:08:35.760Z,1.70
2019-05-30T12:11:07.256Z,2.00
2019-05-30T12:13:38.999Z,4.08
2019-05-30T12:16:10.741Z,3.25
2019-05-30T12:18:42.253Z,5.00
2019-05-30T12:21:13.882Z,2.85
2019-05-30T12:23:45.594Z,3.37
2019-05-30T12:26:17.332Z,1.75
2019-05-30T12:28:49.297Z,3.02
2019-05-30T12:31:21.263Z,4.05
2019-05-30T12:33:54.089Z,2.37
2019-05-30T12:36:25.801Z,3.90
2019-05-30T12:38:58.428Z,5.50
2019-05-30T12:41:30.217Z,1.82
2019-05-30T12:44:03.246Z,3.20
2019-05-30T12:46:35.290Z,4.08
2019-05-30T12:49:06.964Z,2.20
2019-05-30T12:51:38.777Z,3.25
2019-05-30T12:54:10.301Z,2.30
2019-05-30T12:56:42.235Z,1.60
2019-05-30T12:59:13.794Z,3.00
2019-05-30T13:01:47.255Z,1.85
2019-05-30T13:04:19.406Z,2.58
2019-05-30T13:06:54.013Z,2.60
2019-05-30T13:09:24.369Z,1.87
2019-05-30T13:11:56.356Z,2.25
2019-05-30T13:14:28.399Z,3.47
2019-05-30T13:16:59.775Z,1.95
2019-05-30T13:19:31.360Z,2.52
2019-05-30T13:22:03.469Z,2.58
2019-05-30T13:24:35.214Z,2.02
2019-05-30T13:27:06.695Z,1.60
2019-05-30T13:32:08.742Z,2.60
2019-05-30T13:34:40.281Z,2.00
2019-05-30T13:37:11.787Z,1.60
2019-05-30T13:39:43.402Z,1.70
2019-05-30T13:42:14.932Z,2.15
2019-05-30T13:44:46.500Z,1.57
2019-05-30T13:47:18.218Z,1.60
2019-05-30T13:49:49.773Z,1.92
2019-05-30T13:52:21.388Z,1.80
2019-05-30T13:54:53.104Z,2.50
2019-05-30T13:57:24.790Z,2.10
2019-05-30T13:59:56.414Z,2.72
2019-05-30T14:02:27.970Z,2.08
2019-05-30T14:04:59.969Z,2.12
2019-05-30T14:07:31.729Z,2.62
2019-05-30T14:12:34.402Z,2.70
2019-05-30T14:15:10.065Z,4.12
2019-05-30T14:17:39.983Z,3.67
2019-05-30T14:20:11.666Z,2.80
2019-05-30T14:25:16.392Z,1.92
2019-05-30T14:27:48.280Z,2.87
2019-05-30T14:30:20.372Z,2.83
2019-05-30T14:32:51.983Z,2.22
2019-05-30T14:35:23.374Z,2.33
2019-05-30T14:37:54.785Z,2.83
2019-05-30T14:40:26.303Z,5.15
2019-05-30T14:42:58.265Z,2.30
2019-05-30T14:45:29.726Z,2.20
2019-05-30T14:48:01.421Z,4.25
2019-05-30T14:50:32.983Z,2.67
2019-05-30T14:53:04.980Z,2.77
2019-05-30T14:55:36.578Z,3.17
2019-05-30T14:58:09.134Z,3.22
2019-05-30T15:00:41.438Z,7.85
2019-05-30T15:03:19.416Z,5.60
2019-05-30T15:05:51.220Z,4.20
2019-05-30T15:08:31.611Z,3.62
2019-05-30T15:11:03.102Z,3.02
2019-05-30T15:13:53.861Z,2.02
2019-05-30T15:16:25.744Z,2.08
2019-05-30T15:18:58.111Z,2.80
2019-05-30T15:21:32.058Z,3.60
2019-05-30T15:24:03.655Z,2.12
2019-05-30T15:29:08.392Z,4.90
2019-05-30T15:31:45.441Z,2.05
2019-05-30T15:34:20.208Z,5.12
2019-05-30T15:36:57.458Z,2.92
2019-05-30T15:39:40.141Z,4.55
2019-05-30T15:42:24.095Z,2.30
2019-05-30T15:45:03.058Z,2.65
2019-05-30T15:47:38.681Z,2.27
2019-05-30T15:52:47.842Z,3.40
2019-05-30T15:55:22.949Z,2.55
2019-05-30T15:57:53.421Z,3.98
2019-05-30T16:00:25.756Z,5.70
2019-05-30T16:05:28.218Z,1.98
2019-05-30T16:07:59.718Z,2.17
2019-05-30T16:15:33.275Z,2.27
2019-05-30T16:18:04.907Z,3.83
2019-05-30T16:20:37.049Z,1.92
2019-05-30T16:23:08.750Z,2.35
2019-05-30T16:28:11.782Z,2.20
2019-05-30T16:30:43.435Z,3.20
2019-05-30T16:33:15.966Z,2.42
2019-05-30T16:35:48.354Z,2.40
2019-05-30T16:38:20.125Z,2.47
2019-05-30T16:40:52.332Z,3.72
2019-05-30T16:43:24.312Z,3.67
2019-05-30T16:45:56.293Z,4.47
2019-05-30T16:48:27.822Z,2.20
2019-05-30T16:50:59.644Z,4.65
2019-05-30T16:53:31.657Z,3.80
2019-05-30T16:56:03.381Z,3.62
2019-05-30T16:58:35.305Z,2.37
2019-05-30T17:01:06.906Z,1.70
2019-05-30T17:03:38.759Z,4.15
2019-05-30T17:08:40.726Z,3.00
2019-05-30T17:11:12.935Z,2.70
2019-05-30T17:13:44.899Z,67.60
2019-05-30T17:16:17.825Z,49.33
2019-05-30T17:18:49.745Z,42.23
2019-05-30T17:23:53.024Z,44.88
2019-05-30T17:26:25.375Z,40.55
2019-05-30T17:28:57.302Z,42.45
2019-05-30T17:31:28.963Z,41.63
2019-05-30T17:34:00.829Z,39.92
2019-05-30T17:36:32.802Z,38.40
2019-05-30T17:39:08.099Z,40.85
2019-05-30T17:41:39.806Z,41.30
2019-05-30T17:44:25.088Z,39.98
2019-05-30T17:46:57.666Z,35.68
2019-05-30T17:52:05.645Z,36.63
2019-05-30T17:54:38.098Z,38.75
2019-05-30T17:57:09.786Z,33.95
2019-05-30T17:59:41.602Z,31.73
2019-05-30T18:02:15.920Z,37.08
2019-05-30T18:04:47.707Z,34.53
2019-05-30T18:09:55.148Z,34.92
2019-05-30T18:12:27.507Z,29.70
2019-05-30T18:15:01.890Z,31.77
2019-05-30T18:17:37.952Z,29.48
2019-05-30T18:20:11.309Z,30.55
2019-05-30T18:22:43.306Z,31.55
2019-05-30T18:25:18.375Z,35.05
2019-05-30T18:27:50.057Z,34.10
2019-05-30T18:30:23.714Z,33.35
2019-05-30T18:32:55.362Z,27.30
2019-05-30T18:35:28.475Z,28.95
2019-05-30T18:38:01.962Z,29.63
2019-05-30T18:40:35.307Z,28.38
2019-05-30T18:43:12.446Z,27.13
2019-05-30T18:45:49.885Z,27.35
2019-05-30T18:48:25.162Z,27.05
2019-05-30T18:50:57.064Z,27.95
2019-05-30T18:53:30.318Z,30.43
2019-05-30T18:56:03.311Z,27.30
2019-05-30T18:58:35.295Z,28.17
2019-05-30T19:01:07.314Z,28.90
2019-05-30T19:03:39.234Z,31.95
2019-05-30T19:06:15.308Z,25.40
2019-05-30T19:08:48.467Z,25.30
2019-05-30T19:11:28.167Z,24.23
2019-05-30T19:13:56.313Z,28.00
2019-05-30T19:16:28.502Z,27.10
2019-05-30T19:18:59.877Z,26.47
2019-05-30T19:21:32.196Z,25.88
2019-05-30T19:24:07.347Z,25.72
2019-05-30T19:26:39.295Z,27.42
2019-05-30T19:29:11.066Z,25.08
2019-05-30T19:31:42.760Z,20.57
2019-05-30T19:36:45.786Z,25.80
2019-05-30T19:39:17.442Z,20.12
2019-05-30T19:41:56.862Z,24.43
2019-05-30T19:44:22.843Z,27.30
2019-05-30T19:46:54.622Z,22.10
2019-05-30T19:49:26.804Z,21.60
2019-05-30T19:51:58.647Z,22.02
2019-05-30T19:54:30.916Z,23.20
2019-05-30T19:57:02.788Z,21.27
2019-05-30T20:02:04.585Z,19.30
2019-05-30T20:04:36.348Z,21.57
2019-05-30T20:07:08.818Z,20.85
2019-05-30T20:09:40.853Z,19.70
2019-05-30T20:12:12.990Z,20.77
2019-05-30T20:14:44.757Z,21.25
2019-05-30T20:19:47.341Z,20.45
2019-05-30T20:22:19.310Z,19.57
2019-05-30T20:24:50.997Z,22.60
2019-05-30T20:27:22.793Z,20.60
2019-05-30T20:29:54.662Z,18.95
2019-05-30T20:34:58.309Z,19.27
2019-05-30T20:37:29.923Z,22.70
2019-05-30T20:40:02.398Z,21.27
2019-05-30T20:42:34.703Z,18.60
2019-05-30T20:45:09.901Z,17.42
2019-05-30T20:47:42.221Z,18.60
2019-05-30T20:50:15.329Z,17.27
2019-05-30T20:52:47.685Z,16.60
2019-05-30T20:57:52.890Z,18.25
2019-05-30T21:00:43.846Z,18.17
2019-05-30T21:03:16.314Z,16.00
2019-05-30T21:05:48.066Z,19.60
2019-05-30T21:08:19.765Z,16.60
2019-05-30T21:10:51.477Z,16.42
2019-05-30T21:13:23.302Z,17.15
2019-05-30T21:15:54.829Z,17.77
2019-05-30T21:18:26.793Z,16.42
2019-05-30T21:20:58.729Z,21.07
2019-05-30T21:26:01.792Z,14.90
2019-05-30T21:28:33.721Z,16.70
2019-05-30T21:33:37.586Z,15.95
2019-05-30T21:36:09.753Z,14.95
2019-05-30T21:41:15.298Z,16.90
2019-05-30T21:43:46.905Z,14.45
2019-05-30T21:46:18.766Z,15.15
2019-05-30T21:51:21.307Z,14.33
2019-05-30T21:53:52.852Z,15.13
2019-05-30T21:56:25.298Z,14.33
2019-05-30T21:58:57.297Z,13.88
2019-05-30T22:01:35.061Z,12.98
2019-05-30T22:04:07.794Z,14.75
2019-05-30T22:06:40.850Z,15.75
2019-05-30T22:09:13.051Z,15.38
2019-05-30T22:11:45.597Z,14.35
2019-05-30T22:14:17.485Z,15.32
2019-05-30T22:16:50.267Z,12.30
2019-05-30T22:19:22.057Z,14.68
2019-05-30T22:21:53.829Z,12.00
2019-05-30T22:24:25.618Z,15.38
2019-05-30T22:26:57.328Z,15.32
2019-05-30T22:32:10.901Z,12.90
2019-05-30T22:34:42.717Z,14.55
2019-05-30T22:37:14.413Z,12.85
2019-05-30T22:39:46.790Z,12.45
2019-05-30T22:42:19.041Z,12.03
2019-05-30T22:44:50.782Z,11.95
2019-05-30T22:49:53.046Z,14.05
2019-05-30T22:52:24.771Z,12.75
2019-05-30T22:54:57.324Z,12.30
2019-05-30T22:57:28.944Z,11.22
2019-05-30T23:00:00.634Z,12.15
2019-05-30T23:02:32.125Z,13.95
2019-05-30T23:05:03.597Z,12.25
2019-05-30T23:07:35.105Z,11.43
2019-05-30T23:10:06.772Z,11.12
2019-05-30T23:12:38.272Z,10.90
2019-05-30T23:15:09.803Z,12.78
2019-05-30T23:17:40.324Z,14.10
2019-05-30T23:20:12.019Z,11.45
2019-05-30T23:22:43.336Z,11.88
2019-05-30T23:25:14.788Z,9.93
2019-05-30T23:27:47.424Z,12.00
2019-05-30T23:30:20.869Z,10.95
2019-05-30T23:32:52.723Z,12.68
2019-05-30T23:37:55.252Z,11.40
2019-05-30T23:40:26.987Z,11.15
2019-05-30T23:42:59.265Z,10.13
2019-05-30T23:45:31.137Z,10.55
2019-05-30T23:48:02.751Z,10.35
2019-05-30T23:50:34.776Z,11.10
2019-05-30T23:53:06.263Z,10.43
2019-05-30T23:55:37.778Z,12.20
